Time;durP1;ratioP1;P1;durP2;ratioP2;P2;SDS_P1;SDS_P2;PMS_P1;PMS_P2;Temp;Humidity;BMP_temperature;BMP_pressure;BME280_temperature;BME280_humidity;BME280_pressure;Samples;Min_cycle;Max_cycle;Signal;HPM_P1;HPM_P2
2023/12/11 00:01:46;;;;;;;1.33;0.60;;;8.90;31.60;;;;;;7376922;19;20011;-68
2023/12/11 00:04:17;;;;;;;1.10;0.80;;;8.90;31.70;;;;;;7375090;19;20013;-69
2023/12/11 00:06:48;;;;;;;1.88;0.82;;;8.90;32.30;;;;;;7373933;19;20023;-70
2023/12/11 00:09:21;;;;;;;1.50;0.50;;;8.90;33.70;;;;;;7375724;19;20007;-70
2023/12/11 00:11:51;;;;;;;1.50;0.70;;;8.90;37.80;;;;;;7376590;19;20014;-69
2023/12/11 00:14:22;;;;;;;2.95;0.85;;;8.90;36.50;;;;;;7375829;19;20010;-70
2023/12/11 00:16:53;;;;;;;1.52;0.55;;;8.90;35.60;;;;;;7375763;19;20010;-70
2023/12/11 00:19:23;;;;;;;3.17;0.60;;;8.90;37.40;;;;;;7375581;19;20022;-70
2023/12/11 00:21:53;;;;;;;1.08;0.40;;;8.90;35.50;;;;;;7377246;19;19999;-70
2023/12/11 00:24:26;;;;;;;2.45;0.57;;;8.90;38.20;;;;;;7376055;19;20007;-69
2023/12/11 00:26:57;;;;;;;3.38;0.57;;;8.90;36.90;;;;;;7372796;19;20006;-69
2023/12/11 00:29:27;;;;;;;1.25;0.50;;;8.90;34.40;;;;;;7375384;19;20010;-69
2023/12/11 00:31:57;;;;;;;1.38;0.50;;;8.90;33.10;;;;;;7376214;19;20078;-69
2023/12/11 00:34:28;;;;;;;1.83;0.70;;;8.90;30.50;;;;;;7376202;19;20032;-69
2023/12/11 00:36:58;;;;;;;0.63;0.30;;;8.90;31.90;;;;;;7375208;19;20449;-69
2023/12/11 00:39:31;;;;;;;2.20;0.40;;;8.90;29.80;;;;;;7374506;19;20017;-69
2023/12/11 00:42:02;;;;;;;2.38;1.20;;;8.90;31.80;;;;;;7376985;19;20015;-69
2023/12/11 00:44:32;;;;;;;2.33;0.50;;;9.00;29.00;;;;;;7372516;19;20490;-69
2023/12/11 00:47:04;;;;;;;3.65;0.88;;;9.00;28.50;;;;;;7375875;19;20602;-69
2023/12/11 00:49:34;;;;;;;1.38;0.60;;;9.00;28.90;;;;;;7375858;19;20006;-70
2023/12/11 00:52:05;;;;;;;0.73;0.50;;;9.10;27.50;;;;;;7382136;19;20037;-69
2023/12/11 00:54:38;;;;;;;1.90;0.60;;;9.10;27.80;;;;;;7381452;19;20121;-69
2023/12/11 00:57:09;;;;;;;1.67;0.50;;;9.10;29.70;;;;;;7381926;19;20015;-69
2023/12/11 00:59:39;;;;;;;1.20;0.47;;;9.10;34.20;;;;;;7381520;19;20402;-70
2023/12/11 01:02:09;;;;;;;1.92;0.60;;;9.10;41.40;;;;;;7382281;19;20011;-70
2023/12/11 01:04:39;;;;;;;2.10;0.70;;;9.10;47.50;;;;;;7381736;19;20045;-70
2023/12/11 01:07:10;;;;;;;1.20;0.55;;;9.10;51.70;;;;;;7381108;19;20026;-70
2023/12/11 01:09:43;;;;;;;2.45;0.85;;;9.00;55.20;;;;;;7380778;19;20047;-71
2023/12/11 01:12:14;;;;;;;1.58;0.70;;;9.00;56.90;;;;;;7380804;19;20420;-70
2023/12/11 01:14:44;;;;;;;2.80;0.50;;;9.00;56.60;;;;;;7380882;19;20015;-70
2023/12/11 01:17:14;;;;;;;2.33;0.63;;;9.00;61.40;;;;;;7380804;19;20033;-69
2023/12/11 01:20:05;;;;;;;1.50;0.57;;;8.90;64.80;;;;;;7383559;19;20018;-69
2023/12/11 01:22:35;;;;;;;1.92;0.45;;;8.90;70.10;;;;;;7381567;19;20463;-69
2023/12/11 01:25:09;;;;;;;1.98;0.63;;;8.90;70.50;;;;;;7377432;19;20010;-69
2023/12/11 01:27:39;;;;;;;1.67;0.90;;;8.90;72.30;;;;;;7373214;19;20041;-69
2023/12/11 01:30:10;;;;;;;2.88;0.50;;;9.00;72.70;;;;;;7380677;19;20014;-69
2023/12/11 01:32:40;;;;;;;0.85;0.50;;;8.90;70.40;;;;;;7380219;19;20546;-69
2023/12/11 01:35:11;;;;;;;1.00;0.40;;;9.00;70.90;;;;;;7380162;19;20014;-69
2023/12/11 01:37:41;;;;;;;2.17;0.70;;;9.10;70.50;;;;;;7379465;19;20015;-69
2023/12/11 01:40:14;;;;;;;1.30;0.55;;;9.10;62.20;;;;;;7380887;19;20475;-69
2023/12/11 01:42:44;;;;;;;2.92;0.70;;;9.10;65.50;;;;;;7380467;19;20006;-69
2023/12/11 01:45:15;;;;;;;1.50;0.73;;;9.10;65.50;;;;;;7380086;19;20035;-69
2023/12/11 01:47:45;;;;;;;1.55;0.55;;;9.10;70.50;;;;;;7378696;19;20010;-69
2023/12/11 01:50:16;;;;;;;2.05;0.70;;;9.10;63.90;;;;;;7380421;19;20011;-69
2023/12/11 01:52:47;;;;;;;2.20;1.02;;;9.10;59.50;;;;;;7380788;19;20467;-68
2023/12/11 01:55:19;;;;;;;1.85;0.90;;;9.00;62.10;;;;;;7379827;19;20011;-70
2023/12/11 01:57:50;;;;;;;1.33;0.60;;;9.00;64.60;;;;;;7380502;19;20470;-70
2023/12/11 02:00:22;;;;;;;1.20;0.63;;;9.00;81.90;;;;;;7378445;19;20011;-70
2023/12/11 02:02:53;;;;;;;1.63;0.60;;;9.10;87.00;;;;;;7380173;19;20032;-69
2023/12/11 02:05:23;;;;;;;1.33;0.50;;;9.20;77.40;;;;;;7381975;19;20103;-69
2023/12/11 02:07:54;;;;;;;1.33;0.50;;;9.20;69.20;;;;;;7380981;19;20096;-70
2023/12/11 02:10:27;;;;;;;1.35;0.70;;;9.20;71.40;;;;;;7379787;19;20003;-70
2023/12/11 02:12:57;;;;;;;1.35;0.52;;;9.30;69.20;;;;;;7379941;19;20018;-68
2023/12/11 02:15:40;;;;;;;2.92;0.93;;;9.20;64.00;;;;;;7379549;19;20522;-68
2023/12/11 02:18:11;;;;;;;1.52;0.80;;;9.10;64.30;;;;;;7380178;19;20006;-68
2023/12/11 02:20:43;;;;;;;2.15;0.73;;;9.00;67.20;;;;;;7380643;19;20044;-68
2023/12/11 02:23:18;;;;;;;1.27;0.55;;;8.90;72.00;;;;;;7377322;19;20102;-69
2023/12/11 02:26:00;;;;;;;2.20;0.68;;;9.00;90.80;;;;;;7377924;19;20086;-68
2023/12/11 02:28:32;;;;;;;2.05;0.50;;;9.00;86.60;;;;;;7378631;19;20011;-68
2023/12/11 02:31:02;;;;;;;0.60;0.50;;;8.90;88.40;;;;;;7379478;19;20031;-69
2023/12/11 02:33:33;;;;;;;0.50;0.40;;;8.90;91.00;;;;;;7380305;19;20010;-69
2023/12/11 02:36:03;;;;;;;2.78;0.63;;;8.90;92.10;;;;;;7378292;19;20349;-69
2023/12/11 02:38:34;;;;;;;2.25;0.47;;;9.10;90.90;;;;;;7378795;19;20031;-69
2023/12/11 02:41:04;;;;;;;1.75;0.40;;;9.10;78.70;;;;;;7377525;19;20447;-69
2023/12/11 02:43:37;;;;;;;1.85;0.40;;;9.10;79.60;;;;;;7377300;19;20011;-69
2023/12/11 02:46:08;;;;;;;1.58;0.50;;;9.30;63.20;;;;;;7376804;19;20037;-69
2023/12/11 02:48:38;;;;;;;1.15;0.60;;;9.30;40.80;;;;;;7379213;19;20443;-69
2023/12/11 02:51:09;;;;;;;1.77;0.80;;;9.30;41.90;;;;;;7378221;19;20026;-69
2023/12/11 02:53:39;;;;;;;1.30;0.60;;;9.30;41.20;;;;;;7378918;19;20009;-69
2023/12/11 02:56:11;;;;;;;1.52;0.50;;;9.40;35.20;;;;;;7376740;19;20010;-70
2023/12/11 02:58:44;;;;;;;0.93;0.40;;;9.40;30.80;;;;;;7378203;19;20016;-69
2023/12/11 03:01:15;;;;;;;1.52;0.55;;;9.40;30.60;;;;;;7376592;19;20086;-69
2023/12/11 03:03:45;;;;;;;1.00;0.50;;;9.50;21.90;;;;;;7377776;19;20012;-69
2023/12/11 03:06:20;;;;;;;0.73;0.32;;;9.60;10.70;;;;;;7376299;19;20049;-69
2023/12/11 03:08:51;;;;;;;0.80;0.45;;;9.70;1.00;;;;;;7376948;19;20467;-69
2023/12/11 03:11:21;;;;;;;1.45;0.77;;;9.90;1.00;;;;;;7377071;19;20408;-69
2023/12/11 03:13:54;;;;;;;2.75;0.60;;;9.90;1.00;;;;;;7375671;19;20002;-69
2023/12/11 03:16:24;;;;;;;1.63;0.43;;;9.90;1.00;;;;;;7375765;19;20007;-69
2023/12/11 03:18:54;;;;;;;1.70;0.40;;;10.00;1.00;;;;;;7376966;19;20063;-69
2023/12/11 03:21:24;;;;;;;1.90;0.40;;;9.90;1.00;;;;;;7376506;19;20010;-69
2023/12/11 03:23:55;;;;;;;1.77;0.60;;;9.90;1.00;;;;;;7375742;19;20026;-69
2023/12/11 03:26:25;;;;;;;0.75;0.43;;;9.80;8.20;;;;;;7375897;19;20014;-69
2023/12/11 03:28:57;;;;;;;2.60;0.50;;;9.60;22.20;;;;;;7376345;19;20024;-69
2023/12/11 03:31:28;;;;;;;2.05;0.40;;;9.50;38.80;;;;;;7375740;19;20014;-69
2023/12/11 03:33:58;;;;;;;2.92;0.60;;;9.40;57.30;;;;;;7375860;19;20478;-69
2023/12/11 03:36:28;;;;;;;1.10;0.40;;;9.30;76.90;;;;;;7376310;19;20007;-69
2023/12/11 03:38:58;;;;;;;0.88;0.50;;;9.30;92.70;;;;;;7377273;19;20024;-69
2023/12/11 03:41:28;;;;;;;2.15;0.77;;;9.30;99.90;;;;;;7376927;19;20010;-69
2023/12/11 03:44:01;;;;;;;0.82;0.45;;;9.30;99.90;;;;;;7376167;19;20081;-69
2023/12/11 03:46:32;;;;;;;0.90;0.57;;;9.20;99.90;;;;;;7375270;19;20018;-69
2023/12/11 03:49:02;;;;;;;1.05;0.40;;;9.20;99.90;;;;;;7375999;19;20036;-69
2023/12/11 03:51:32;;;;;;;1.42;0.40;;;9.10;99.90;;;;;;7375206;19;20021;-69
2023/12/11 03:54:03;;;;;;;1.50;0.50;;;9.00;99.90;;;;;;7375426;19;20010;-69
2023/12/11 03:56:33;;;;;;;2.05;0.50;;;9.00;99.90;;;;;;7374733;19;20021;-69
2023/12/11 03:59:06;;;;;;;1.52;0.45;;;8.90;99.90;;;;;;7375865;19;20013;-69
2023/12/11 04:01:36;;;;;;;1.42;0.47;;;8.90;99.90;;;;;;7374446;19;20025;-69
2023/12/11 04:04:07;;;;;;;1.58;0.45;;;8.90;99.90;;;;;;7375698;19;20082;-68
2023/12/11 04:06:37;;;;;;;0.38;0.35;;;8.80;99.90;;;;;;7375027;19;20032;-68
2023/12/11 04:09:08;;;;;;;0.70;0.45;;;8.90;99.90;;;;;;7375855;19;20026;-68
2023/12/11 04:11:38;;;;;;;0.50;0.40;;;8.90;99.90;;;;;;7375773;19;20007;-70
2023/12/11 04:14:11;;;;;;;3.38;0.40;;;8.90;99.90;;;;;;7373396;19;20019;-68
2023/12/11 04:16:44;;;;;;;2.60;0.50;;;8.80;99.90;;;;;;7372970;19;20698;-69
2023/12/11 04:19:15;;;;;;;0.50;0.40;;;8.70;99.90;;;;;;7374084;19;20017;-69
2023/12/11 04:21:46;;;;;;;1.58;0.60;;;8.60;99.90;;;;;;7372358;19;20123;-70
2023/12/11 04:24:17;;;;;;;1.25;0.65;;;8.60;99.90;;;;;;7372730;19;20015;-70
2023/12/11 04:26:48;;;;;;;1.27;0.80;;;8.50;99.90;;;;;;7379300;19;20002;-68
2023/12/11 04:29:21;;;;;;;0.77;0.47;;;8.50;99.90;;;;;;7382345;19;20493;-70
2023/12/11 04:31:51;;;;;;;1.67;0.80;;;8.50;99.90;;;;;;7377903;19;20028;-70
2023/12/11 04:34:21;;;;;;;4.53;2.50;;;8.40;99.90;;;;;;7381455;19;20006;-70
2023/12/11 04:36:51;;;;;;;6.57;4.55;;;8.50;99.90;;;;;;7381050;19;20015;-69
2023/12/11 04:39:21;;;;;;;4.65;2.63;;;8.40;99.90;;;;;;7381954;19;20077;-70
2023/12/11 04:41:51;;;;;;;2.63;0.65;;;8.50;99.90;;;;;;7380542;19;20018;-70
2023/12/11 04:44:24;;;;;;;0.68;0.50;;;8.50;99.90;;;;;;7384268;19;20021;-68
2023/12/11 04:46:55;;;;;;;3.20;0.80;;;8.60;99.90;;;;;;7381451;19;20031;-70
2023/12/11 04:49:25;;;;;;;0.63;0.30;;;8.60;99.90;;;;;;7380674;19;20082;-69
2023/12/11 04:51:57;;;;;;;0.57;0.30;;;8.70;99.90;;;;;;7376721;19;20026;-71
2023/12/11 04:54:28;;;;;;;0.60;0.30;;;8.70;99.90;;;;;;7379028;19;20643;-69
2023/12/11 04:56:58;;;;;;;1.40;0.60;;;8.70;99.90;;;;;;7377695;19;20017;-69
2023/12/11 04:59:32;;;;;;;1.38;0.60;;;8.70;99.90;;;;;;7377730;19;20010;-69
2023/12/11 05:02:02;;;;;;;2.70;0.50;;;8.70;99.90;;;;;;7375081;19;20015;-69
2023/12/11 05:04:33;;;;;;;0.82;0.50;;;8.70;99.90;;;;;;7381200;19;20014;-68
2023/12/11 05:07:04;;;;;;;4.45;0.82;;;8.70;99.90;;;;;;7379307;19;20018;-69
2023/12/11 05:09:35;;;;;;;1.35;0.82;;;8.60;99.90;;;;;;7378420;19;20014;-69
2023/12/11 05:12:06;;;;;;;2.45;0.85;;;8.70;99.90;;;;;;7382353;19;20348;-69
2023/12/11 05:14:39;;;;;;;4.22;1.02;;;8.70;99.90;;;;;;7382661;19;20499;-69
2023/12/11 05:17:09;;;;;;;1.65;0.68;;;8.60;99.90;;;;;;7380579;19;20017;-69
2023/12/11 05:19:40;;;;;;;2.42;0.50;;;8.50;99.90;;;;;;7381950;19;20451;-69
2023/12/11 05:22:10;;;;;;;1.95;0.70;;;8.50;99.90;;;;;;7382622;19;20015;-69
2023/12/11 05:24:40;;;;;;;1.85;0.68;;;8.70;99.90;;;;;;7381229;19;20074;-69
2023/12/11 05:27:12;;;;;;;3.20;0.80;;;8.70;99.90;;;;;;7380674;19;20467;-69
2023/12/11 05:29:45;;;;;;;6.00;2.33;;;8.60;99.90;;;;;;7381443;19;20011;-69
2023/12/11 05:32:15;;;;;;;2.38;0.90;;;8.70;99.90;;;;;;7380166;19;20018;-69
2023/12/11 05:34:45;;;;;;;6.30;4.78;;;8.70;99.90;;;;;;7380419;19;20011;-68
2023/12/11 05:37:15;;;;;;;2.15;1.55;;;8.80;99.90;;;;;;7379772;19;20014;-68
2023/12/11 05:39:46;;;;;;;10.90;0.75;;;8.70;99.90;;;;;;7377934;19;20007;-68
2023/12/11 05:42:36;;;;;;;2.47;0.60;;;8.70;99.90;;;;;;7374987;19;20014;-69
2023/12/11 05:45:10;;;;;;;3.03;0.85;;;8.70;99.90;;;;;;7376620;19;20011;-68
2023/12/11 05:47:40;;;;;;;2.40;1.10;;;8.60;99.90;;;;;;7376276;19;20668;-69
2023/12/11 05:50:11;;;;;;;2.15;0.73;;;8.60;99.90;;;;;;7375806;19;20350;-69
2023/12/11 05:52:42;;;;;;;1.50;0.82;;;8.60;99.90;;;;;;7376147;19;20031;-68
2023/12/11 05:55:12;;;;;;;2.70;0.95;;;8.60;99.90;;;;;;7378313;19;20011;-68
2023/12/11 05:57:42;;;;;;;3.92;0.80;;;8.50;99.90;;;;;;7378575;19;20011;-69
2023/12/11 06:00:20;;;;;;;3.47;1.20;;;8.40;99.90;;;;;;7380180;19;20011;-68
2023/12/11 06:02:50;;;;;;;2.50;0.90;;;8.40;99.90;;;;;;7379301;19;20021;-69
2023/12/11 06:05:21;;;;;;;3.22;1.10;;;8.40;99.90;;;;;;7378505;19;20014;-69
2023/12/11 06:07:51;;;;;;;3.97;1.15;;;8.30;99.90;;;;;;7378219;19;20066;-69
2023/12/11 06:10:21;;;;;;;1.95;1.27;;;8.20;99.90;;;;;;7380004;19;20086;-69
2023/12/11 06:12:52;;;;;;;2.42;1.38;;;8.20;99.90;;;;;;7379185;19;20363;-69
2023/12/11 06:15:24;;;;;;;3.15;2.08;;;8.20;99.90;;;;;;7377635;19;20014;-69
2023/12/11 06:17:55;;;;;;;4.25;1.45;;;8.20;99.90;;;;;;7379865;19;20002;-68
2023/12/11 06:20:25;;;;;;;2.97;1.35;;;8.20;99.90;;;;;;7380065;19;20042;-68
2023/12/11 06:22:55;;;;;;;1.52;0.88;;;8.20;99.90;;;;;;7379991;19;20015;-69
2023/12/11 06:25:25;;;;;;;2.67;0.75;;;8.30;99.90;;;;;;7380443;19;20011;-69
2023/12/11 06:27:56;;;;;;;1.23;1.13;;;8.30;99.90;;;;;;7378472;19;20070;-68
2023/12/11 06:30:29;;;;;;;0.93;0.60;;;8.40;99.90;;;;;;7380104;19;20031;-69
2023/12/11 06:32:59;;;;;;;3.92;0.70;;;8.40;99.90;;;;;;7379926;19;20475;-69
2023/12/11 06:35:29;;;;;;;5.15;0.90;;;8.30;99.90;;;;;;7377889;19;20014;-68
2023/12/11 06:37:59;;;;;;;1.38;0.90;;;8.30;99.90;;;;;;7377364;19;20014;-69
2023/12/11 06:40:29;;;;;;;6.40;2.97;;;8.30;99.90;;;;;;7380561;19;20006;-69
2023/12/11 06:43:00;;;;;;;7.35;3.90;;;8.30;99.90;;;;;;7379547;19;20003;-69
2023/12/11 06:45:32;;;;;;;8.80;4.68;;;8.30;99.90;;;;;;7377927;19;20011;-69
2023/12/11 06:48:08;;;;;;;3.90;1.70;;;8.30;99.90;;;;;;7373889;19;20014;-69
2023/12/11 06:50:38;;;;;;;1.92;1.23;;;8.30;99.90;;;;;;7377911;19;20466;-68
2023/12/11 06:53:08;;;;;;;3.72;1.08;;;8.30;95.20;;;;;;7377026;19;20018;-68
2023/12/11 06:55:38;;;;;;;2.25;0.95;;;8.40;92.90;;;;;;7378325;19;20011;-68
2023/12/11 06:58:09;;;;;;;3.50;1.10;;;8.50;80.10;;;;;;7378103;19;20018;-68
2023/12/11 07:00:42;;;;;;;2.28;1.02;;;8.50;66.00;;;;;;7377697;19;20007;-68
2023/12/11 07:03:12;;;;;;;3.35;1.00;;;8.60;54.10;;;;;;7378568;19;20106;-68
2023/12/11 07:05:44;;;;;;;7.50;1.20;;;8.60;45.00;;;;;;7377357;19;20431;-68
2023/12/11 07:08:15;;;;;;;1.25;0.88;;;8.60;38.30;;;;;;7376431;19;20089;-69
2023/12/11 07:10:45;;;;;;;3.13;1.30;;;8.70;29.90;;;;;;7377047;19;20010;-69
2023/12/11 07:13:15;;;;;;;1.15;0.90;;;8.70;30.20;;;;;;7376144;19;20011;-68
2023/12/11 07:15:48;;;;;;;2.35;1.27;;;8.80;25.90;;;;;;7377003;19;20014;-68
2023/12/11 07:18:18;;;;;;;4.60;1.60;;;8.80;19.30;;;;;;7373977;19;20052;-68
2023/12/11 07:20:49;;;;;;;3.80;1.35;;;8.70;20.20;;;;;;7375710;19;20494;-68
2023/12/11 07:23:19;;;;;;;1.75;1.15;;;8.80;17.30;;;;;;7376807;19;20014;-69
2023/12/11 07:25:49;;;;;;;2.42;0.90;;;8.90;13.00;;;;;;7373300;19;20022;-69
2023/12/11 07:28:19;;;;;;;2.67;1.33;;;8.80;13.70;;;;;;7372852;19;20010;-68
2023/12/11 07:30:52;;;;;;;3.08;1.00;;;8.80;16.50;;;;;;7373931;19;20071;-68
2023/12/11 07:33:22;;;;;;;2.80;1.30;;;8.90;13.10;;;;;;7376473;19;20018;-68
2023/12/11 07:35:52;;;;;;;2.83;0.90;;;8.90;12.80;;;;;;7376389;19;20038;-69
2023/12/11 07:38:24;;;;;;;3.47;1.23;;;8.80;13.20;;;;;;7374662;19;20366;-68
2023/12/11 07:40:55;;;;;;;3.35;1.20;;;8.90;12.20;;;;;;7374513;19;20007;-68
2023/12/11 07:43:25;;;;;;;3.60;1.15;;;8.90;11.30;;;;;;7376858;19;20018;-69
2023/12/11 07:45:59;;;;;;;2.92;1.10;;;8.90;11.60;;;;;;7376688;19;20453;-68
2023/12/11 07:48:31;;;;;;;1.95;1.17;;;8.90;14.10;;;;;;7375943;19;20013;-68
2023/12/11 07:51:01;;;;;;;2.03;1.10;;;8.90;13.50;;;;;;7377256;19;20557;-68
2023/12/11 07:53:31;;;;;;;2.08;1.20;;;8.90;14.00;;;;;;7377156;19;20035;-68
2023/12/11 07:56:03;;;;;;;1.90;1.00;;;8.90;12.40;;;;;;7377062;19;20651;-68
2023/12/11 07:58:33;;;;;;;3.97;1.15;;;8.90;9.10;;;;;;7375759;19;20355;-68
2023/12/11 08:01:07;;;;;;;1.67;1.02;;;8.90;10.20;;;;;;7376848;19;20510;-68
2023/12/11 08:03:39;;;;;;;3.88;1.02;;;8.90;10.80;;;;;;7376425;19;20371;-68
2023/12/11 08:06:11;;;;;;;4.30;1.60;;;8.90;11.90;;;;;;7376311;19;20074;-68
2023/12/11 08:08:43;;;;;;;4.05;1.10;;;8.90;7.30;;;;;;7375163;19;20002;-71
2023/12/11 08:11:18;;;;;;;2.95;1.17;;;8.90;7.60;;;;;;7376976;19;20014;-68
2023/12/11 08:13:48;;;;;;;;;;;9.10;3.70;;;;;;7376442;19;20010;-68
2023/12/11 08:16:21;;;;;;;1.48;0.98;;;9.20;1.00;;;;;;7374408;19;19985;-68
2023/12/11 08:18:52;;;;;;;4.10;1.40;;;9.30;1.00;;;;;;7374755;19;20015;-68
2023/12/11 08:21:23;;;;;;;3.80;1.20;;;9.30;1.00;;;;;;7375446;19;20502;-69
2023/12/11 08:23:53;;;;;;;3.53;1.38;;;9.30;1.00;;;;;;7374646;19;20090;-68
2023/12/11 08:26:24;;;;;;;3.00;1.23;;;9.30;1.00;;;;;;7375280;19;20463;-68
2023/12/11 08:28:54;;;;;;;3.40;1.42;;;9.40;1.00;;;;;;7373177;19;20014;-68
2023/12/11 08:31:31;;;;;;;5.22;1.30;;;9.50;1.00;;;;;;7375774;19;20305;-68
2023/12/11 08:34:01;;;;;;;4.65;1.23;;;9.60;1.00;;;;;;7374996;19;20011;-68
2023/12/11 08:36:32;;;;;;;8.85;1.10;;;9.70;1.00;;;;;;7374377;19;20011;-68
2023/12/11 08:39:02;;;;;;;6.03;1.67;;;9.80;1.00;;;;;;7375024;19;20014;-68
2023/12/11 08:41:33;;;;;;;8.43;1.42;;;9.80;1.00;;;;;;7374990;19;20017;-69
2023/12/11 08:44:03;;;;;;;7.32;1.42;;;9.90;1.00;;;;;;7375203;19;20018;-69
2023/12/11 08:46:36;;;;;;;4.18;1.30;;;10.00;1.00;;;;;;7373676;19;20014;-69
2023/12/11 08:49:06;;;;;;;3.60;1.30;;;10.10;1.00;;;;;;7374536;19;20090;-69
2023/12/11 08:51:37;;;;;;;4.03;1.30;;;10.20;1.00;;;;;;7375938;19;20017;-68
2023/12/11 08:54:07;;;;;;;4.85;1.20;;;10.20;1.00;;;;;;7374283;19;20010;-68
2023/12/11 08:56:37;;;;;;;6.68;1.40;;;10.40;1.00;;;;;;7373660;19;20006;-69
2023/12/11 08:59:09;;;;;;;6.03;1.38;;;10.40;1.00;;;;;;7374278;19;20036;-69
2023/12/11 09:01:41;;;;;;;4.28;0.82;;;10.50;1.00;;;;;;7373936;19;20014;-68
2023/12/11 09:04:12;;;;;;;1.50;0.88;;;10.50;1.00;;;;;;7375538;19;20041;-68
2023/12/11 09:06:42;;;;;;;2.20;1.00;;;10.60;1.00;;;;;;7373393;19;20015;-69
2023/12/11 09:09:12;;;;;;;4.18;1.23;;;10.60;1.00;;;;;;7375232;19;20558;-68
2023/12/11 09:11:44;;;;;;;5.30;1.20;;;10.70;1.00;;;;;;7381448;19;20064;-68
2023/12/11 09:14:14;;;;;;;3.63;2.08;;;10.70;1.00;;;;;;7381662;19;20010;-68
2023/12/11 09:16:47;;;;;;;4.80;1.23;;;10.70;1.00;;;;;;7381089;19;20082;-69
2023/12/11 09:19:17;;;;;;;5.22;1.63;;;10.80;1.00;;;;;;7381330;19;20014;-68
2023/12/11 09:21:50;;;;;;;6.60;1.20;;;10.80;1.00;;;;;;7379484;19;20021;-68
2023/12/11 09:24:20;;;;;;;5.13;1.00;;;10.80;1.00;;;;;;7380815;19;20015;-68
2023/12/11 09:26:50;;;;;;;2.83;0.90;;;10.80;1.00;;;;;;7380404;19;20007;-68
2023/12/11 09:29:21;;;;;;;2.63;0.80;;;10.80;1.00;;;;;;7380778;19;20010;-69
2023/12/11 09:31:54;;;;;;;2.92;0.93;;;10.80;1.00;;;;;;7380575;19;20007;-69
2023/12/11 09:34:24;;;;;;;4.88;1.35;;;10.80;1.00;;;;;;7380636;19;20045;-68
2023/12/11 09:36:55;;;;;;;4.60;1.05;;;10.80;1.00;;;;;;7378365;19;20010;-68
2023/12/11 09:39:25;;;;;;;4.32;1.15;;;10.70;1.00;;;;;;7380082;19;20006;-69
2023/12/11 09:41:57;;;;;;;4.13;1.02;;;10.70;1.00;;;;;;7378731;19;20014;-69
2023/12/11 09:44:29;;;;;;;3.38;0.75;;;10.80;1.00;;;;;;7379182;19;20039;-69
2023/12/11 09:47:08;;;;;;;4.40;1.20;;;10.80;1.00;;;;;;7378219;19;20074;-68
2023/12/11 09:49:38;;;;;;;7.28;1.23;;;11.00;1.00;;;;;;7379134;19;20022;-67
2023/12/11 09:52:09;;;;;;;5.25;1.40;;;11.00;1.00;;;;;;7378090;19;20007;-69
2023/12/11 09:54:40;;;;;;;2.40;0.95;;;11.10;1.00;;;;;;7379278;19;20011;-69
2023/12/11 09:57:13;;;;;;;3.78;0.85;;;11.20;1.00;;;;;;7382885;19;20010;-68
2023/12/11 09:59:44;;;;;;;3.45;0.85;;;11.30;1.00;;;;;;7388187;19;20082;-68
2023/12/11 10:02:18;;;;;;;3.55;1.15;;;11.50;1.00;;;;;;7379207;19;20010;-68
2023/12/11 10:05:04;;;;;;;;;;;11.50;1.00;;;;;;7380335;19;20543;-69
2023/12/11 10:07:34;;;;;;;;;;;11.70;1.00;;;;;;7376388;19;19915;-69
2023/12/11 10:10:31;;;;;;;3.38;1.13;;;11.80;1.00;;;;;;7378425;19;19918;-70
2023/12/11 10:13:02;;;;;;;3.67;1.40;;;11.80;1.00;;;;;;7376953;19;20010;-69
2023/12/11 10:15:34;;;;;;;5.00;1.02;;;11.70;1.00;;;;;;7377240;19;20100;-68
2023/12/11 10:18:09;;;;;;;7.43;1.08;;;11.70;1.00;;;;;;7376381;19;20013;-69
2023/12/11 10:20:41;;;;;;;2.42;0.95;;;11.70;1.00;;;;;;7373879;19;20662;-69
2023/12/11 10:23:18;;;;;;;4.45;1.17;;;11.60;1.00;;;;;;7374345;19;20537;-69
2023/12/11 10:25:50;;;;;;;2.10;0.80;;;11.80;1.00;;;;;;7376792;19;20007;-69
2023/12/11 10:28:22;;;;;;;1.75;0.70;;;11.80;1.00;;;;;;7377305;19;20506;-69
2023/12/11 10:30:55;;;;;;;3.38;1.30;;;11.90;1.00;;;;;;7377826;19;20032;-68
2023/12/11 10:33:30;;;;;;;3.42;1.02;;;11.90;1.00;;;;;;7377959;19;20469;-68
2023/12/11 10:36:12;;;;;;;3.35;1.40;;;12.00;1.00;;;;;;7375258;19;20014;-68
2023/12/11 10:38:43;;;;;;;6.45;1.90;;;12.00;1.00;;;;;;6867072;19;2004829;-70
2023/12/11 10:41:27;;;;;;;2.20;1.08;;;12.00;1.00;;;;;;7376344;19;20398;-68
2023/12/11 10:43:57;;;;;;;5.70;1.13;;;12.00;1.00;;;;;;7378299;19;20017;-68
2023/12/11 10:46:45;;;;;;;3.90;1.90;;;12.00;1.00;;;;;;6865092;19;2004813;-69
2023/12/11 10:49:19;;;;;;;5.32;1.00;;;12.10;1.00;;;;;;7377896;19;20010;-68
2023/12/11 10:51:50;;;;;;;6.05;1.20;;;12.10;1.00;;;;;;7377129;19;20017;-68
2023/12/11 10:54:21;;;;;;;3.78;1.20;;;12.10;1.00;;;;;;7377920;19;20371;-69
2023/12/11 10:56:51;;;;;;;4.05;1.27;;;12.10;1.00;;;;;;7377802;19;20771;-69
2023/12/11 10:59:22;;;;;;;5.25;1.17;;;12.20;1.00;;;;;;7376923;19;20014;-70
2023/12/11 11:01:53;;;;;;;5.00;1.65;;;12.30;1.00;;;;;;7377962;19;20086;-68
2023/12/11 11:04:27;;;;;;;3.67;1.08;;;12.30;1.00;;;;;;7377889;19;20035;-68
2023/12/11 11:07:02;;;;;;;11.48;4.32;;;12.30;1.00;;;;;;7377052;19;20452;-68
2023/12/11 11:09:37;;;;;;;3.95;1.15;;;12.30;1.00;;;;;;7379452;19;20018;-68
2023/12/11 11:12:15;;;;;;;4.20;1.45;;;12.40;1.00;;;;;;7377187;19;20009;-69
2023/12/11 11:14:49;;;;;;;4.07;1.27;;;12.30;1.00;;;;;;7375231;19;20034;-69
2023/12/11 11:17:20;;;;;;;8.68;1.48;;;12.30;1.00;;;;;;7376299;19;20433;-68
2023/12/11 11:20:15;;;;;;;3.55;1.20;;;12.30;1.00;;;;;;7374587;19;20075;-69
2023/12/11 11:22:49;;;;;;;6.82;1.45;;;12.30;1.00;;;;;;6864176;19;2004804;-67
2023/12/11 11:25:36;;;;;;;9.52;2.33;;;12.30;1.00;;;;;;7375857;19;20106;-68
2023/12/11 11:28:07;;;;;;;8.65;1.92;;;12.30;1.00;;;;;;7377260;19;20121;-68
2023/12/11 11:30:55;;;;;;;4.60;1.17;;;12.30;1.00;;;;;;7375474;19;20090;-68
2023/12/11 11:33:25;;;;;;;3.78;0.85;;;12.30;1.00;;;;;;7375946;19;20019;-68
2023/12/11 11:35:59;;;;;;;7.95;1.38;;;12.50;1.00;;;;;;7377392;19;20368;-68
2023/12/11 11:38:53;;;;;;;3.65;1.25;;;12.50;1.00;;;;;;7376032;19;20015;-69
2023/12/11 11:41:24;;;;;;;5.60;1.60;;;12.40;1.00;;;;;;6866265;19;2004756;-69
2023/12/11 11:44:04;;;;;;;7.25;1.80;;;12.30;1.00;;;;;;7376090;19;20093;-69
2023/12/11 11:46:50;;;;;;;4.97;1.42;;;12.20;1.00;;;;;;7375882;19;20006;-69
2023/12/11 11:49:28;;;;;;;4.20;1.33;;;12.10;1.00;;;;;;7375508;19;20015;-68
2023/12/11 11:52:01;;;;;;;4.30;1.15;;;12.00;1.00;;;;;;7376561;19;20102;-68
2023/12/11 11:54:33;;;;;;;9.73;1.60;;;12.00;1.00;;;;;;7374214;19;20018;-68
2023/12/11 11:57:03;;;;;;;4.32;1.33;;;12.10;1.00;;;;;;7374926;19;20363;-68
2023/12/11 11:59:34;;;;;;;5.00;1.42;;;12.10;1.00;;;;;;7376070;19;21247;-67
2023/12/11 12:02:04;;;;;;;4.97;1.80;;;12.30;1.00;;;;;;7376329;19;21725;-68
2023/12/11 12:04:36;;;;;;;8.90;2.03;;;12.40;1.00;;;;;;7375383;19;20074;-68
2023/12/11 12:07:09;;;;;;;4.22;1.35;;;12.40;1.00;;;;;;7375419;19;20439;-69
2023/12/11 12:09:39;;;;;;;5.90;1.63;;;12.40;1.00;;;;;;7376102;19;20010;-69
2023/12/11 12:12:16;;;;;;;8.35;2.05;;;12.40;1.00;;;;;;7375426;19;20516;-68
2023/12/11 12:14:47;;;;;;;6.15;1.58;;;12.40;1.00;;;;;;7372391;19;20011;-69
2023/12/11 12:17:17;;;;;;;4.63;1.60;;;12.50;1.00;;;;;;7373925;19;20010;-69
2023/12/11 12:19:47;;;;;;;8.38;1.98;;;12.40;1.00;;;;;;7375106;19;20549;-68
2023/12/11 12:22:20;;;;;;;9.88;1.92;;;12.40;1.00;;;;;;7375290;19;20015;-68
2023/12/11 12:24:51;;;;;;;6.38;1.65;;;12.40;1.00;;;;;;7374679;19;20027;-68
2023/12/11 12:27:23;;;;;;;9.23;1.90;;;12.40;1.00;;;;;;7375687;19;20015;-68
2023/12/11 12:29:54;;;;;;;4.93;1.40;;;12.40;1.00;;;;;;7373663;19;20014;-69
2023/12/11 12:32:25;;;;;;;5.70;1.77;;;12.30;1.00;;;;;;7377065;19;20036;-68
2023/12/11 12:34:55;;;;;;;7.63;2.00;;;12.30;1.00;;;;;;7381324;19;20502;-69
2023/12/11 12:37:28;;;;;;;8.55;1.90;;;12.30;1.00;;;;;;7377998;19;20050;-70
2023/12/11 12:39:59;;;;;;;6.38;1.88;;;12.10;1.00;;;;;;7375109;19;20010;-68
2023/12/11 12:42:32;;;;;;;9.68;1.73;;;12.00;1.00;;;;;;7372063;19;20536;-70
2023/12/11 12:45:02;;;;;;;10.55;2.08;;;12.00;1.00;;;;;;7373846;19;20019;-70
2023/12/11 12:47:33;;;;;;;10.68;2.33;;;11.80;1.00;;;;;;7379039;19;20018;-68
2023/12/11 12:50:06;;;;;;;9.38;2.05;;;11.80;1.00;;;;;;7380289;19;20060;-68
2023/12/11 12:52:40;;;;;;;7.45;1.95;;;11.70;1.00;;;;;;7381327;19;20409;-70
2023/12/11 12:55:10;;;;;;;9.85;2.28;;;11.60;1.00;;;;;;7381974;19;20486;-68
2023/12/11 12:57:41;;;;;;;11.02;2.60;;;11.60;1.00;;;;;;7380905;19;20118;-69
2023/12/11 13:00:21;;;;;;;11.43;2.38;;;11.60;1.00;;;;;;7380988;19;20014;-68
2023/12/11 13:02:51;;;;;;;7.28;2.08;;;11.60;1.00;;;;;;7380353;19;20002;-69
2023/12/11 13:05:21;;;;;;;9.88;2.05;;;11.60;1.00;;;;;;7381517;19;20011;-68
2023/12/11 13:08:03;;;;;;;10.98;2.58;;;11.60;1.00;;;;;;7380074;19;20070;-68
2023/12/11 13:10:33;;;;;;;9.25;2.42;;;11.60;1.00;;;;;;7381155;19;20116;-68
2023/12/11 13:13:10;;;;;;;6.40;1.83;;;11.70;1.00;;;;;;7379499;19;20019;-69
2023/12/11 13:15:42;;;;;;;8.88;2.20;;;11.70;1.00;;;;;;7380151;19;20006;-68
2023/12/11 13:18:16;;;;;;;7.60;2.05;;;11.70;1.00;;;;;;7379804;19;20006;-68
2023/12/11 13:20:47;;;;;;;9.00;2.70;;;11.70;1.00;;;;;;7377737;19;20011;-68
2023/12/11 13:23:20;;;;;;;8.32;2.67;;;11.70;1.00;;;;;;7382402;19;20059;-68